Latest Weather Observations for Mangalore

IDV60801

Issued at 11:31 am EST Saturday 25 April 2015 (issued every 30 minutes, with the page automatically refreshed every 10 minutes)

About weather observations | Map of weather stations | Latest weather observations for VIC | Other Formats
Station Details ID: 088109 Name: MANGALORE AIRPORT Lat: -36.89 Lon: 145.19 Height: 140.8 m
Data from the previous 72 hours. | See also: Recent months at Mangalore
Date/Time
EST
Temp
°C
App
Temp
°C
Dew
Point
Rel
Hum
%
Delta-T
°C
Wind Press
QNH
hPa
Press
MSL
hPa
Rain
since 9 am
mm
Dir
 
Spd
km/h
Gust
km/h
Spd
kts
Gust
kts
25/11:30am 15.2 14.0 10.2 72 2.6 N 7 11 4 6 1008.5 1008.4 0.0
25/11:00am 14.5 13.0 10.5 77 2.1 N 9 11 5 6 1008.5 1008.4 0.0
25/10:30am 14.3 12.4 10.5 78 2.0 NNW 11 13 6 7 1008.4 1008.3 0.0
25/10:10am 13.6 11.6 11.5 87 1.1 NNW 13 17 7 9 1008.3 1008.2 0.0
25/10:00am 13.3 11.4 11.7 90 0.9 N 13 19 7 10 1008.2 1008.0 0.0
25/09:37am 13.5 12.4 11.9 90 0.9 WNW 9 13 5 7 1008.0 1007.8 0.0
25/09:30am 13.7 12.7 12.4 92 0.7 WNW 9 13 5 7 1007.9 1007.7 0.0
25/09:00am 12.7 11.0 12.5 99 0.1 W 13 17 7 9 1007.5 1007.3 6.8
25/08:30am 12.1 11.3 11.8 98 0.2 ESE 7 9 4 5 1007.5 1007.3 6.8
25/08:00am 11.9 10.6 11.4 97 0.3 ESE 9 11 5 6 1007.2 1007.0 6.8
25/07:30am 12.1 11.5 11.6 97 0.3 SE 6 7 3 4 1006.7 1006.5 6.8
25/07:00am 11.8 9.0 11.5 98 0.2 SSE 17 20 9 11 1006.2 1006.0 6.4
25/06:30am 11.6 9.6 11.4 99 0.1 SSE 13 15 7 8 1006.4 1006.2 6.4
25/06:00am 11.4 10.5 11.2 99 0.1 WNW 7 9 4 5 1006.5 1006.3 6.4
25/05:30am 11.6 10.3 11.4 99 0.1 W 9 13 5 7 1006.6 1006.4 6.4
25/05:25am 11.8 10.2 11.6 99 0.1 WSW 11 13 6 7 1006.6 1006.4 6.2
25/05:07am 11.8 10.2 11.6 99 0.1 WNW 11 15 6 8 1006.4 1006.2 5.4
25/05:00am 11.7 9.7 11.5 99 0.1 NW 13 19 7 10 1006.6 1006.4 4.8
25/04:57am 11.7 9.3 11.5 99 0.1 NW 15 19 8 10 1006.6 1006.4 4.8
25/04:51am 12.1 10.2 11.9 99 0.1 NNW 13 17 7 9 1006.6 1006.4 4.4
25/04:38am 12.0 10.5 11.8 99 0.1 NNW 11 15 6 8 1006.7 1006.5 4.0
25/04:30am 12.0 10.1 11.8 99 0.1 NNW 13 17 7 9 1006.8 1006.6 4.0
25/04:00am 12.2 10.4 12.0 99 0.1 N 13 20 7 11 1006.3 1006.1 2.8
25/03:41am 12.1 11.4 11.9 99 0.1 E 7 9 4 5 1005.9 1005.7 2.4
25/03:30am 12.1 11.6 11.9 99 0.1 E 6 7 3 4 1005.7 1005.5 2.4
25/03:00am 12.1 11.3 11.8 98 0.2 E 7 9 4 5 1005.7 1005.5 2.4
25/02:30am 12.4 10.5 11.9 97 0.3 ENE 13 15 7 8 1005.8 1005.6 2.4
25/02:29am 12.4 10.9 11.9 97 0.3 ENE 11 15 6 8 1005.8 1005.6 2.4
25/02:00am 12.5 10.6 11.9 96 0.3 N 13 17 7 9 1006.8 1006.6 2.0
25/01:46am 12.8 10.3 12.3 97 0.3 NW 17 22 9 12 1006.9 1006.7 0.8
25/01:30am 12.9 11.9 12.4 97 0.3 WNW 9 13 5 7 1006.4 1006.2 0.6
25/01:00am 12.7 12.6 12.1 96 0.3 WNW 4 11 2 6 1006.6 1006.4 0.6
25/12:30am 13.0 13.7 12.2 95 0.4 CALM 0 0 0 0 1006.9 1006.7 0.6
25/12:00am 13.1 13.0 12.2 94 0.5 WNW 4 6 2 3 1007.0 1006.8 0.6
 
Date/Time
EST
Temp
°C
App
Temp
°C
Dew
Point
Rel
Hum
%
Delta-T
°C
Wind Press
QNH
hPa
Press
MSL
hPa
Rain
since 9 am
mm
Dir
 
Spd
km/h
Gust
km/h
Spd
kts
Gust
kts
24/11:30pm 13.0 13.3 12.1 94 0.5 WNW 2 6 1 3 1006.9 1006.7 0.6
24/11:00pm 13.0 12.3 12.1 94 0.5 WNW 7 9 4 5 1007.0 1006.8 0.6
24/10:30pm 13.0 12.1 11.4 90 0.9 WNW 7 7 4 4 1007.1 1006.9 0.6
24/10:25pm 13.0 12.2 11.1 88 1.0 WNW 6 7 3 4 1007.1 1006.9 0.6
24/10:04pm 13.4 10.0 10.6 83 1.5 W 19 26 10 14 1007.3 1007.1 0.4
24/10:00pm 13.7 10.7 10.7 82 1.6 NW 17 26 9 14 1007.3 1007.1 0.0
24/09:30pm 13.7 11.4 10.3 80 1.8 NE 13 15 7 8 1006.6 1006.4 0.0
24/09:00pm 13.7 11.7 10.3 80 1.8 NE 11 13 6 7 1006.7 1006.5 0.0
24/08:30pm 13.9 11.6 10.5 80 1.8 NE 13 15 7 8 1006.5 1006.3 0.0
24/08:00pm 13.5 11.1 10.1 80 1.8 NNE 13 15 7 8 1006.5 1006.3 0.0
24/07:30pm 14.6 12.3 10.4 76 2.2 NNE 13 17 7 9 1006.4 1006.2 0.0
24/07:00pm 14.8 12.5 10.4 75 2.3 NNE 13 17 7 9 1006.2 1006.0 0.0
24/06:30pm 14.9 12.2 10.3 74 2.4 NNE 15 17 8 9 1005.8 1005.6 0.0
24/06:00pm 15.7 13.4 10.5 71 2.8 N 13 19 7 10 1005.5 1005.3 0.0
24/05:30pm 16.1 12.6 10.2 68 3.1 N 19 24 10 13 1005.2 1005.0 0.0
24/05:00pm 17.3 13.6 10.2 63 3.8 N 20 28 11 15 1004.8 1004.6 0.0
24/04:30pm 18.1 14.1 9.2 56 4.7 N 20 24 11 13 1004.9 1004.7 0.0
24/04:00pm 18.5 15.1 9.3 55 4.9 N 17 20 9 11 1004.6 1004.4 0.0
24/03:30pm 18.1 14.1 8.9 55 4.8 N 20 30 11 16 1004.5 1004.3 0.0
24/03:00pm 18.1 14.6 8.9 55 4.8 N 17 26 9 14 1004.6 1004.4 0.0
24/02:30pm 18.4 14.0 8.9 54 5.0 NNW 22 30 12 16 1004.6 1004.4 0.0
24/02:00pm 18.5 13.9 9.6 56 4.7 NNW 24 28 13 15 1004.5 1004.3 0.0
24/01:30pm 19.1 15.4 10.1 56 4.8 NNW 20 30 11 16 1004.7 1004.5 0.0
24/01:00pm 19.7 16.5 10.1 54 5.2 N 17 22 9 12 1004.7 1004.5 0.0
24/12:30pm 18.6 15.5 10.4 59 4.4 NNW 17 24 9 13 1005.1 1004.9 0.0
24/12:00pm 18.2 15.9 10.6 61 4.1 NW 13 19 7 10 1005.6 1005.4 0.0
24/11:30am 17.6 15.9 11.2 66 3.5 N 11 17 6 9 1006.0 1005.8 0.0
24/11:00am 17.4 16.3 11.9 70 3.0 NNW 9 19 5 10 1006.0 1005.8 0.0
24/10:30am 17.1 16.0 11.8 71 2.9 NNW 9 13 5 7 1006.3 1006.1 0.0
24/10:00am 17.5 16.4 13.0 75 2.5 N 11 17 6 9 1006.2 1006.0 0.0
24/09:30am 16.9 16.3 13.4 80 2.0 NNE 9 13 5 7 1006.3 1006.1 0.0
24/09:25am 16.3 15.5 13.0 81 1.8 NNE 9 13 5 7 1006.3 1006.1 0.0
24/09:03am 15.6 14.2 13.4 87 1.2 NNE 13 17 7 9 1006.5 1006.3 0.0
24/09:00am 15.6 14.2 13.4 87 1.2 NNE 13 17 7 9 1006.5 1006.3 0.0
24/08:49am 15.6 15.4 14.6 94 0.6 NE 9 15 5 8 1006.5 1006.3 0.0
24/08:30am 15.0 14.8 14.8 99 0.1 ENE 9 11 5 6 1006.7 1006.5 0.0
24/08:00am 14.1 13.3 13.9 99 0.1 ESE 11 13 6 7 1006.6 1006.4 0.0
24/07:30am 13.0 12.5 12.8 99 0.1 SW 7 9 4 5 1006.3 1006.1 0.0
24/07:28am 12.9 12.4 12.7 99 0.1 SW 7 9 4 5 1006.3 1006.1 0.0
24/07:00am 12.5 11.9 12.3 99 0.1 SW 7 9 4 5 1006.4 1006.2 0.0
24/06:52am 12.4 11.8 12.2 99 0.1 SW 7 7 4 4 1006.2 1006.0 0.0
24/06:30am 12.8 12.4 12.5 98 0.2 SW 6 7 3 4 1005.9 1005.7 0.0
24/06:24am 12.7 12.1 12.4 98 0.2 SW 7 7 4 4 1005.8 1005.6 0.0
24/06:00am 12.9 12.5 12.4 97 0.3 SW 6 6 3 3 1005.8 1005.6 0.0
24/05:30am 13.3 13.0 12.7 96 0.3 SW 6 9 3 5 1006.2 1006.0 0.0
24/05:00am 13.7 14.6 12.8 94 0.5 CALM 0 0 0 0 1006.0 1005.8 0.0
24/04:56am 13.8 14.3 12.9 94 0.5 SW 2 6 1 3 1006.0 1005.8 0.0
24/04:30am 14.1 13.9 13.1 94 0.6 SW 6 7 3 4 1006.3 1006.1 0.0
24/04:00am 14.1 13.7 13.1 94 0.6 SW 7 9 4 5 1006.3 1006.1 0.0
24/03:30am 14.2 15.2 13.1 93 0.6 CALM 0 6 0 3 1006.2 1006.0 0.0
24/03:00am 14.3 14.0 13.2 93 0.6 SW 7 9 4 5 1006.7 1006.5 0.0
24/02:30am 14.3 13.9 13.0 92 0.7 SW 7 9 4 5 1007.2 1007.0 0.0
24/02:00am 14.4 13.7 13.1 92 0.7 SSW 9 11 5 6 1007.5 1007.3 0.0
24/01:30am 14.4 13.3 13.1 92 0.7 SW 11 15 6 8 1007.8 1007.6 0.0
24/01:00am 14.3 13.5 12.9 91 0.8 SSW 9 13 5 7 1007.9 1007.7 0.0
24/12:30am 14.4 12.8 12.8 90 0.9 SW 13 15 7 8 1008.2 1008.0 0.0
24/12:00am 14.6 13.8 12.8 89 1.0 SSW 9 13 5 7 1008.3 1008.2 0.0
 
Date/Time
EST
Temp
°C
App
Temp
°C
Dew
Point
Rel
Hum
%
Delta-T
°C
Wind Press
QNH
hPa
Press
MSL
hPa
Rain
since 9 am
mm
Dir
 
Spd
km/h
Gust
km/h
Spd
kts
Gust
kts
23/11:30pm 14.7 13.5 12.7 88 1.1 SW 11 15 6 8 1009.0 1008.9 0.0
23/11:00pm 14.8 13.6 12.8 88 1.1 SW 11 15 6 8 1009.3 1009.2 0.0
23/10:30pm 14.7 13.0 12.6 87 1.2 SW 13 17 7 9 1009.4 1009.3 0.0
23/10:00pm 14.8 13.2 12.7 87 1.2 SW 13 17 7 9 1009.7 1009.6 0.0
23/09:30pm 14.9 13.2 12.6 86 1.3 SSW 13 19 7 10 1009.8 1009.7 0.0
23/09:00pm 14.9 13.2 12.4 85 1.4 SSW 13 17 7 9 1010.1 1010.0 0.0
23/08:30pm 15.2 13.1 12.3 83 1.6 SSW 15 19 8 10 1010.3 1010.2 0.0
23/08:00pm 15.4 13.6 12.2 81 1.8 SSW 13 19 7 10 1010.6 1010.5 0.0
23/07:30pm 15.7 13.5 12.1 79 2.0 SSW 15 20 8 11 1010.7 1010.6 0.0
23/07:00pm 16.1 14.4 12.3 78 2.1 SSW 13 19 7 10 1010.8 1010.7 0.0
23/06:30pm 16.3 14.5 12.1 76 2.3 SSW 13 20 7 11 1010.9 1010.8 0.0
23/06:00pm 16.8 14.2 12.1 74 2.6 SW 17 22 9 12 1010.9 1010.8 0.0
23/05:30pm 17.4 14.3 12.1 71 2.9 SSW 20 26 11 14 1010.8 1010.7 0.0
23/05:00pm 18.6 15.6 12.1 66 3.6 SSW 19 26 10 14 1010.7 1010.6 0.0
23/04:30pm 19.5 16.9 12.0 62 4.2 SSW 17 22 9 12 1010.7 1010.6 0.0
23/04:00pm 20.0 16.9 12.3 61 4.3 SSW 20 30 11 16 1010.8 1010.7 0.0
23/03:30pm 21.6 18.6 11.9 54 5.5 SW 19 26 10 14 1011.0 1010.9 0.0
23/03:00pm 21.6 19.0 11.9 54 5.5 SW 17 24 9 13 1011.4 1011.2 0.0
23/02:30pm 22.3 19.8 12.3 53 5.7 SW 17 24 9 13 1011.5 1011.3 0.0
23/02:00pm 22.3 19.9 12.5 53 5.6 SSW 17 26 9 14 1011.9 1011.7 0.0
23/01:30pm 21.2 18.0 11.2 53 5.6 SSW 19 28 10 15 1012.1 1011.9 0.0
23/01:00pm 21.1 18.0 11.7 55 5.3 SSW 19 26 10 14 1012.8 1012.6 0.0
23/12:30pm 21.1 18.0 11.7 55 5.3 SSW 19 26 10 14 1013.5 1013.3 0.0
23/12:00pm 20.8 18.3 12.2 58 4.9 SSW 17 24 9 13 1014.2 1014.0 0.0
23/11:30am 20.0 17.1 12.3 61 4.3 SSW 19 24 10 13 1014.9 1014.8 0.0
23/11:00am 18.7 15.4 11.5 63 4.0 SSW 20 26 11 14 1015.5 1015.4 0.0
23/10:30am 18.3 15.0 11.6 65 3.7 SSW 20 28 11 15 1015.9 1015.8 0.0
23/10:00am 17.1 14.3 11.4 69 3.1 SSW 17 24 9 13 1016.1 1016.0 0.0
23/09:30am 16.0 12.7 11.6 75 2.4 S 20 28 11 15 1016.5 1016.4 0.0
23/09:00am 15.4 12.6 11.4 77 2.2 SSW 17 24 9 13 1016.7 1016.6 0.0
23/08:30am 14.4 12.3 11.0 80 1.8 SSW 13 19 7 10 1016.9 1016.8 0.0
23/08:00am 14.2 11.7 11.2 82 1.6 SSW 15 22 8 12 1017.0 1016.9 0.0
23/07:30am 13.3 11.1 10.7 84 1.4 SSW 13 17 7 9 1016.9 1016.8 0.0
23/07:00am 12.3 10.6 10.0 86 1.2 S 9 15 5 8 1016.7 1016.6 0.0
23/06:30am 12.7 10.7 10.1 84 1.3 S 11 17 6 9 1016.6 1016.5 0.0
23/06:00am 13.0 9.9 10.2 83 1.5 S 17 24 9 13 1016.7 1016.6 0.0
23/05:30am 13.0 10.3 10.2 83 1.5 S 15 19 8 10 1016.9 1016.8 0.0
23/05:00am 12.9 10.9 10.3 84 1.4 S 11 17 6 9 1016.9 1016.8 0.0
23/04:30am 12.9 10.2 10.3 84 1.4 S 15 19 8 10 1016.9 1016.8 0.0
23/04:00am 12.4 9.9 9.8 84 1.3 S 13 17 7 9 1016.9 1016.8 0.0
23/03:30am 12.3 9.8 9.7 84 1.3 S 13 19 7 10 1017.0 1016.9 0.0
23/03:00am 12.3 10.1 9.5 83 1.4 SSE 11 17 6 9 1017.2 1017.1 0.0
23/02:30am 12.6 9.7 9.6 82 1.5 S 15 22 8 12 1017.6 1017.5 0.0
23/02:00am 12.9 10.4 9.7 81 1.6 S 13 17 7 9 1017.8 1017.7 0.0
23/01:30am 13.1 11.1 10.1 82 1.6 SSW 11 19 6 10 1017.9 1017.8 0.0
23/01:00am 13.2 10.9 10.4 83 1.5 SSW 13 20 7 11 1017.7 1017.6 0.0
23/12:30am 13.2 11.2 10.0 81 1.7 SSE 11 13 6 7 1018.0 1017.9 0.0
23/12:00am 14.0 11.6 10.2 78 2.0 S 13 22 7 12 1018.4 1018.3 0.0
 
Date/Time
EST
Temp
°C
App
Temp
°C
Dew
Point
Rel
Hum
%
Delta-T
°C
Wind Press
QNH
hPa
Press
MSL
hPa
Rain
since 9 am
mm
Dir
 
Spd
km/h
Gust
km/h
Spd
kts
Gust
kts
22/11:30pm 14.5 11.1 10.7 78 2.0 SSE 19 26 10 14 1018.5 1018.4 0.0
22/11:00pm 13.9 12.2 11.1 83 1.5 SSE 11 17 6 9 1019.0 1018.8 0.0
22/10:30pm 12.9 11.7 10.4 85 1.3 S 7 9 4 5 1019.5 1019.3 0.0
22/10:00pm 13.9 12.2 11.1 83 1.5 S 11 15 6 8 1019.9 1019.7 0.0
22/09:30pm 14.0 12.6 10.8 81 1.7 SSW 9 13 5 7 1020.3 1020.1 0.0
22/09:00pm 14.3 13.0 11.3 82 1.6 SSW 9 15 5 8 1020.0 1019.8 0.0
22/08:30pm 13.6 12.4 10.2 80 1.8 S 7 11 4 6 1019.9 1019.7 0.0
22/08:00pm 15.1 13.0 11.3 78 2.0 SSW 13 17 7 9 1019.9 1019.7 0.0
22/07:30pm 15.3 13.5 10.7 74 2.5 SW 11 17 6 9 1020.0 1019.8 0.0
22/07:00pm 15.9 12.9 10.7 71 2.8 SSW 17 32 9 17 1019.8 1019.6 0.0
22/06:30pm 16.7 13.2 10.8 68 3.2 S 20 28 11 15 1019.8 1019.6 0.0
22/06:00pm 17.3 13.7 10.7 65 3.5 S 20 28 11 15 1019.5 1019.3 0.0
22/05:30pm 17.7 12.6 10.6 63 3.8 S 28 39 15 21 1019.2 1019.0 0.0
22/05:00pm 18.5 13.8 10.6 60 4.3 S 26 35 14 19 1019.0 1018.8 0.0
22/04:30pm 19.4 13.9 10.4 56 4.9 SSE 30 39 16 21 1019.0 1018.8 0.0
22/04:00pm 19.9 14.6 10.0 53 5.3 SSE 28 37 15 20 1019.2 1019.0 0.0
22/03:30pm 20.3 16.0 10.7 54 5.3 S 24 32 13 17 1019.4 1019.2 0.0
22/03:00pm 20.9 16.2 10.7 52 5.6 S 26 35 14 19 1019.5 1019.3 0.0
22/02:30pm 20.9 15.7 10.4 51 5.7 S 28 41 15 22 1019.8 1019.6 0.0
22/02:00pm 20.6 16.1 10.1 51 5.7 S 24 35 13 19 1020.1 1019.9 0.0
22/01:30pm 20.2 14.1 9.7 51 5.6 SSE 32 41 17 22 1020.4 1020.3 0.0
22/01:00pm 20.1 15.1 9.7 51 5.6 S 26 37 14 20 1021.0 1020.9 0.0
22/12:30pm 20.1 15.4 9.1 49 5.8 S 24 35 13 19 1021.4 1021.3 0.0
22/12:00pm 19.6 14.7 9.8 53 5.2 S 26 37 14 20 1022.0 1021.9 0.0

Other Formats:

Comma delimited format used in spreadsheet applications
http://www.bom.gov.au/fwo/IDV60801/IDV60801.94874.axf

JavaScript Object Notation format (JSON) in row-major order
http://www.bom.gov.au/fwo/IDV60801/IDV60801.94874.json